createdAt,value
2023-04-01T00:01:14.218Z,99.90
2023-04-01T00:03:41.392Z,99.90
2023-04-01T00:06:09.879Z,99.90
2023-04-01T00:08:36.360Z,99.90
2023-04-01T00:11:02.833Z,99.90
2023-04-01T00:13:29.596Z,99.90
2023-04-01T00:15:57.575Z,99.90
2023-04-01T00:18:24.895Z,99.90
2023-04-01T00:20:52.340Z,99.90
2023-04-01T00:23:19.965Z,99.90
2023-04-01T00:25:48.201Z,99.90
2023-04-01T00:28:20.228Z,99.90
2023-04-01T00:30:48.116Z,99.90
2023-04-01T00:33:15.494Z,99.90
2023-04-01T00:35:42.222Z,99.90
2023-04-01T00:38:08.756Z,99.90
2023-04-01T00:40:40.500Z,99.90
2023-04-01T00:43:21.243Z,99.90
2023-04-01T00:45:49.635Z,99.90
2023-04-01T00:48:22.909Z,99.90
2023-04-01T00:51:08.347Z,99.90
2023-04-01T00:53:42.128Z,99.90
2023-04-01T00:56:31.680Z,99.90
2023-04-01T00:59:15.249Z,99.90
2023-04-01T01:01:42.025Z,99.90
2023-04-01T01:04:32.939Z,99.90
2023-04-01T01:08:25.595Z,99.90
2023-04-01T01:10:52.465Z,99.90
2023-04-01T01:13:40.674Z,99.90
2023-04-01T01:16:31.268Z,99.90
2023-04-01T01:20:49.234Z,99.90
2023-04-01T01:24:27.117Z,99.90
2023-04-01T01:31:16.965Z,99.90
2023-04-01T01:36:42.883Z,99.90
2023-04-01T01:39:11.169Z,99.90
2023-04-01T01:41:39.760Z,99.90
2023-04-01T01:44:09.950Z,99.90
2023-04-01T01:46:39.451Z,99.90
2023-04-01T01:49:10.661Z,99.90
2023-04-01T01:51:37.178Z,99.90
2023-04-01T01:54:03.734Z,99.90
2023-04-01T01:56:32.454Z,99.90
2023-04-01T01:59:10.235Z,99.90
2023-04-01T02:01:42.717Z,99.90
2023-04-01T02:04:11.470Z,99.90
2023-04-01T02:06:46.741Z,99.90
2023-04-01T02:09:13.600Z,99.90
2023-04-01T02:11:52.493Z,99.90
2023-04-01T02:14:28.655Z,99.90
2023-04-01T02:17:29.473Z,99.90
2023-04-01T02:20:20.918Z,99.90
2023-04-01T02:22:58.070Z,99.90
2023-04-01T02:25:35.009Z,99.90
2023-04-01T02:28:05.501Z,99.90
2023-04-01T02:30:36.226Z,99.90
2023-04-01T02:33:04.991Z,99.90
2023-04-01T02:35:34.344Z,99.90
2023-04-01T02:38:02.088Z,99.90
2023-04-01T02:40:28.579Z,99.90
2023-04-01T02:42:55.066Z,99.90
2023-04-01T02:45:21.789Z,99.90
2023-04-01T02:47:48.342Z,99.90
2023-04-01T02:50:15.791Z,99.90
2023-04-01T02:52:42.260Z,99.90
2023-04-01T02:55:09.591Z,99.90
2023-04-01T02:57:36.097Z,99.90
2023-04-01T03:00:04.102Z,99.90
2023-04-01T03:02:30.693Z,99.90
2023-04-01T03:04:57.226Z,99.90
2023-04-01T03:07:24.997Z,99.90
2023-04-01T03:09:51.484Z,99.90
2023-04-01T03:12:17.982Z,99.90
2023-04-01T03:14:44.449Z,99.90
2023-04-01T03:17:10.946Z,99.90
2023-04-01T03:19:37.430Z,99.90
2023-04-01T03:22:03.915Z,99.90
2023-04-01T03:24:30.402Z,99.90
2023-04-01T03:26:56.886Z,99.90
2023-04-01T03:29:23.395Z,99.90
2023-04-01T03:31:49.897Z,99.90
2023-04-01T03:34:16.362Z,99.90
2023-04-01T03:36:42.898Z,99.90
2023-04-01T03:39:09.380Z,99.90
2023-04-01T03:41:39.712Z,99.90
2023-04-01T03:44:06.462Z,99.90
2023-04-01T03:46:33.038Z,99.90
2023-04-01T03:48:59.509Z,99.90
2023-04-01T03:51:26.017Z,99.90
2023-04-01T03:53:52.524Z,99.90
2023-04-01T03:56:19.000Z,99.90
2023-04-01T03:58:45.614Z,99.90
2023-04-01T04:01:18.644Z,99.90
2023-04-01T04:03:46.000Z,99.90
2023-04-01T04:06:14.494Z,99.90
2023-04-01T04:08:41.135Z,99.90
2023-04-01T04:11:08.309Z,99.90
2023-04-01T04:13:36.102Z,99.90
2023-04-01T04:16:04.193Z,99.90
2023-04-01T04:18:30.763Z,99.90
2023-04-01T04:20:57.337Z,99.90
2023-04-01T04:23:24.747Z,99.90
2023-04-01T04:26:06.813Z,99.90
2023-04-01T04:28:33.802Z,99.90
2023-04-01T04:31:01.969Z,99.90
2023-04-01T04:33:28.705Z,99.90
2023-04-01T04:36:00.332Z,99.90
2023-04-01T04:38:27.735Z,99.90
2023-04-01T04:40:54.352Z,99.90
2023-04-01T04:43:21.622Z,99.90
2023-04-01T04:45:48.250Z,99.90
2023-04-01T04:48:18.721Z,99.90
2023-04-01T04:50:51.494Z,99.90
2023-04-01T04:53:19.767Z,99.90
2023-04-01T04:55:50.592Z,99.90
2023-04-01T04:58:17.759Z,99.90
2023-04-01T05:00:44.896Z,99.90
2023-04-01T05:03:12.889Z,99.90
2023-04-01T05:05:40.434Z,99.90
2023-04-01T05:08:07.347Z,99.90
2023-04-01T05:10:33.853Z,99.90
2023-04-01T05:13:00.387Z,99.90
2023-04-01T05:15:26.873Z,99.90
2023-04-01T05:17:53.377Z,99.90
2023-04-01T05:20:20.230Z,99.90
2023-04-01T05:22:46.809Z,99.90
2023-04-01T05:25:13.318Z,99.90
2023-04-01T05:27:39.868Z,99.90
2023-04-01T05:30:07.483Z,99.90
2023-04-01T05:32:34.064Z,99.90
2023-04-01T05:35:00.562Z,99.90
2023-04-01T05:37:27.050Z,99.90
2023-04-01T05:39:53.544Z,99.90
2023-04-01T05:42:20.196Z,99.90
2023-04-01T05:44:46.685Z,99.90
2023-04-01T05:47:13.187Z,99.90
2023-04-01T05:49:39.673Z,99.90
2023-04-01T05:52:06.163Z,99.90
2023-04-01T05:54:33.278Z,99.90
2023-04-01T05:56:59.901Z,99.90
2023-04-01T05:59:26.405Z,99.90
2023-04-01T06:01:53.334Z,99.90
2023-04-01T06:04:20.481Z,99.90
2023-04-01T06:06:47.024Z,99.90
2023-04-01T06:09:27.677Z,99.90
2023-04-01T06:12:57.536Z,99.90
2023-04-01T06:18:19.224Z,99.90
2023-04-01T06:24:16.306Z,99.90
2023-04-01T06:33:06.158Z,99.90
2023-04-01T06:35:59.781Z,99.90
2023-04-01T06:41:10.329Z,99.90
2023-04-01T06:47:08.410Z,99.90
2023-04-01T06:50:38.379Z,99.90
2023-04-01T06:53:22.524Z,99.90
2023-04-01T06:56:16.968Z,99.90
2023-04-01T06:59:34.984Z,99.90
2023-04-01T07:02:26.211Z,99.90
2023-04-01T07:04:57.770Z,99.90
2023-04-01T07:07:43.653Z,99.60
2023-04-01T07:11:05.686Z,98.90
2023-04-01T07:14:48.322Z,97.30
2023-04-01T07:17:57.426Z,96.20
2023-04-01T07:20:31.182Z,94.10
2023-04-01T07:23:03.702Z,93.30
2023-04-01T07:25:39.970Z,92.30
2023-04-01T07:28:13.745Z,91.00
2023-04-01T07:31:20.222Z,91.30
2023-04-01T07:34:16.188Z,91.30
2023-04-01T07:40:51.611Z,90.80
2023-04-01T07:46:38.415Z,88.20
2023-04-01T07:49:22.451Z,86.10
2023-04-01T07:52:06.739Z,88.70
2023-04-01T07:54:58.314Z,87.00
2023-04-01T07:59:10.318Z,84.90
2023-04-01T08:02:03.357Z,86.10
2023-04-01T08:07:15.685Z,83.80
2023-04-01T08:10:04.331Z,84.20
2023-04-01T08:16:01.764Z,83.70
2023-04-01T08:19:17.200Z,86.30
2023-04-01T08:21:54.893Z,86.30
2023-04-01T08:24:47.780Z,83.80
2023-04-01T08:28:29.894Z,82.50
2023-04-01T08:31:20.257Z,83.20
2023-04-01T08:33:49.283Z,82.80
2023-04-01T08:36:34.418Z,81.30
2023-04-01T08:39:19.557Z,83.40
2023-04-01T08:43:50.530Z,84.50
2023-04-01T08:51:08.627Z,81.60
2023-04-01T08:54:12.754Z,82.00
2023-04-01T08:58:45.014Z,83.10
2023-04-01T09:04:44.592Z,81.10
2023-04-01T09:09:46.950Z,80.30
2023-04-01T09:18:00.905Z,79.90
2023-04-01T09:21:36.623Z,80.50
2023-04-01T09:28:34.580Z,77.00
2023-04-01T09:31:31.940Z,77.80
2023-04-01T09:34:36.462Z,75.00
2023-04-01T09:40:05.473Z,75.90
2023-04-01T09:43:19.979Z,77.70
2023-04-01T09:46:26.573Z,76.70
2023-04-01T09:49:37.776Z,78.80
2023-04-01T09:55:41.536Z,77.00
2023-04-01T10:01:48.463Z,78.20
2023-04-01T10:07:56.899Z,78.30
2023-04-01T10:11:07.772Z,79.60
2023-04-01T10:18:48.178Z,78.40
2023-04-01T10:22:10.956Z,77.60
2023-04-01T10:25:11.125Z,77.10
2023-04-01T10:28:07.183Z,77.10
2023-04-01T10:34:09.416Z,76.70
2023-04-01T10:37:02.496Z,77.60
2023-04-01T10:40:49.134Z,76.20
2023-04-01T10:50:12.298Z,75.80
2023-04-01T10:54:45.061Z,76.50
2023-04-01T10:58:26.500Z,72.60
2023-04-01T11:05:20.921Z,74.20
2023-04-01T11:08:43.302Z,74.60
2023-04-01T11:17:26.254Z,73.50
2023-04-01T11:21:14.749Z,74.10
2023-04-01T11:25:00.872Z,72.30
2023-04-01T11:32:08.238Z,73.50
2023-04-01T11:39:23.934Z,72.40
2023-04-01T11:45:27.916Z,73.40
2023-04-01T11:49:48.747Z,72.60
2023-04-01T11:53:15.840Z,73.80
2023-04-01T12:04:12.861Z,73.90
2023-04-01T12:07:15.909Z,74.30
2023-04-01T12:10:26.497Z,72.30
2023-04-01T12:13:15.555Z,72.90
2023-04-01T12:19:07.119Z,72.70
2023-04-01T12:24:50.193Z,72.20
2023-04-01T12:31:26.522Z,72.30
2023-04-01T12:39:11.310Z,73.10
2023-04-01T12:44:39.968Z,71.50
2023-04-01T12:48:11.825Z,70.80
2023-04-01T12:53:26.838Z,71.80
2023-04-01T12:55:56.285Z,70.10
2023-04-01T13:02:06.443Z,70.70
2023-04-01T13:08:21.227Z,69.60
2023-04-01T13:14:25.047Z,69.70
2023-04-01T13:18:57.357Z,67.70
2023-04-01T13:24:31.457Z,67.30
2023-04-01T13:27:46.091Z,67.90
2023-04-01T13:30:40.499Z,65.70
2023-04-01T13:33:50.310Z,63.50
2023-04-01T13:37:40.381Z,65.50
2023-04-01T13:44:13.385Z,65.80
2023-04-01T13:47:34.029Z,63.10
2023-04-01T13:56:05.172Z,64.30
2023-04-01T14:01:58.260Z,63.40
2023-04-01T14:07:08.678Z,63.00
2023-04-01T14:10:55.471Z,63.00
2023-04-01T14:16:12.809Z,62.60
2023-04-01T14:20:03.661Z,63.50
2023-04-01T14:23:13.185Z,62.30
2023-04-01T14:28:40.004Z,62.20
2023-04-01T14:33:42.346Z,62.00
2023-04-01T14:40:22.372Z,61.10
2023-04-01T14:44:51.726Z,62.00
2023-04-01T14:50:35.562Z,63.20
2023-04-01T14:53:46.029Z,61.30
2023-04-01T14:56:12.789Z,61.50
2023-04-01T14:58:57.434Z,62.30
2023-04-01T15:03:12.851Z,63.00
2023-04-01T15:08:36.964Z,61.20
2023-04-01T15:16:15.802Z,62.00
2023-04-01T15:24:05.155Z,61.80
2023-04-01T15:28:53.169Z,63.80
2023-04-01T15:36:48.358Z,65.60
2023-04-01T15:44:30.412Z,65.30
2023-04-01T15:46:58.498Z,66.30
2023-04-01T15:50:43.080Z,67.00
2023-04-01T15:53:29.533Z,67.20
2023-04-01T15:58:05.975Z,68.00
2023-04-01T16:03:58.284Z,67.60
2023-04-01T16:07:41.218Z,68.70
2023-04-01T16:12:05.063Z,69.10
2023-04-01T16:20:08.044Z,70.00
2023-04-01T16:23:02.704Z,72.20
2023-04-01T16:25:47.658Z,72.40
2023-04-01T16:32:14.903Z,73.70
2023-04-01T16:41:01.076Z,73.50
2023-04-01T16:43:55.722Z,78.00
2023-04-01T16:47:33.406Z,76.60
2023-04-01T16:50:46.970Z,80.60
2023-04-01T16:54:28.898Z,83.20
2023-04-01T16:57:17.076Z,81.30
2023-04-01T17:00:55.242Z,82.90
2023-04-01T17:03:31.408Z,86.90
2023-04-01T17:06:40.347Z,89.60
2023-04-01T17:11:08.182Z,90.60
2023-04-01T17:15:40.437Z,91.80
2023-04-01T17:22:09.694Z,90.30
2023-04-01T17:25:31.505Z,90.00
2023-04-01T17:28:28.048Z,90.00
2023-04-01T17:34:46.417Z,89.90
2023-04-01T17:37:46.057Z,89.10
2023-04-01T17:42:02.995Z,88.60
2023-04-01T17:48:08.900Z,90.90
2023-04-01T17:53:37.205Z,91.40
2023-04-01T17:58:02.052Z,86.00
2023-04-01T18:01:43.325Z,86.20
2023-04-01T18:06:52.111Z,85.50
2023-04-01T18:12:19.870Z,88.10
2023-04-01T18:16:39.238Z,92.30
2023-04-01T18:21:46.809Z,90.00
2023-04-01T18:24:36.066Z,90.70
2023-04-01T18:27:43.481Z,90.90
2023-04-01T18:30:39.756Z,91.00
2023-04-01T18:33:30.001Z,92.50
2023-04-01T18:36:53.678Z,93.40
2023-04-01T18:39:49.266Z,95.50
2023-04-01T18:45:51.229Z,96.10
2023-04-01T18:49:39.679Z,96.00
2023-04-01T18:53:42.040Z,99.90
2023-04-01T18:56:25.851Z,98.00
2023-04-01T19:05:20.324Z,99.90
2023-04-01T19:07:53.841Z,99.20
2023-04-01T19:11:49.923Z,99.20
2023-04-01T19:18:18.076Z,99.10
2023-04-01T19:21:00.137Z,99.80
2023-04-01T19:24:36.890Z,99.90
2023-04-01T19:27:50.027Z,99.90
2023-04-01T19:30:56.635Z,99.90
2023-04-01T19:34:04.054Z,99.90
2023-04-01T19:37:11.969Z,99.90
2023-04-01T19:46:22.526Z,99.90
2023-04-01T19:50:49.635Z,99.90
2023-04-01T19:55:33.689Z,99.90
2023-04-01T20:00:44.674Z,99.90
2023-04-01T20:05:41.224Z,99.90
2023-04-01T20:10:10.352Z,99.90
2023-04-01T20:14:44.883Z,99.90
2023-04-01T20:18:25.523Z,99.90
2023-04-01T20:21:02.594Z,99.90
2023-04-01T20:23:50.216Z,99.90
2023-04-01T20:26:26.086Z,99.90
2023-04-01T20:29:59.361Z,99.90
2023-04-01T20:38:55.725Z,99.90
2023-04-01T20:47:24.622Z,99.90
2023-04-01T20:50:40.846Z,99.90
2023-04-01T20:56:26.976Z,99.90
2023-04-01T21:00:10.348Z,99.90
2023-04-01T21:05:52.924Z,99.90
2023-04-01T21:10:52.372Z,99.90
2023-04-01T21:14:26.703Z,99.90
2023-04-01T21:20:28.448Z,99.90
2023-04-01T21:25:36.902Z,99.90
2023-04-01T21:28:45.373Z,99.90
2023-04-01T21:34:56.510Z,99.90
2023-04-01T21:40:21.482Z,99.90
2023-04-01T21:44:22.604Z,99.30
2023-04-01T21:48:58.920Z,99.50
2023-04-01T21:52:24.099Z,99.70
2023-04-01T21:58:37.581Z,99.90
2023-04-01T22:01:57.784Z,99.90
2023-04-01T22:05:00.129Z,99.90
2023-04-01T22:10:38.630Z,99.90
2023-04-01T22:16:48.735Z,99.30
2023-04-01T22:21:08.556Z,99.00
2023-04-01T22:24:32.882Z,98.70
2023-04-01T22:27:25.254Z,99.00
2023-04-01T22:31:12.875Z,99.10
2023-04-01T22:37:14.556Z,99.00
2023-04-01T22:40:21.646Z,99.00
2023-04-01T22:43:06.526Z,99.00
2023-04-01T22:50:52.215Z,99.10
2023-04-01T22:54:32.038Z,98.60
2023-04-01T22:57:57.354Z,99.90
2023-04-01T23:00:50.593Z,99.90
2023-04-01T23:03:32.434Z,99.90
2023-04-01T23:06:02.629Z,99.90
2023-04-01T23:12:03.888Z,99.90
2023-04-01T23:15:01.345Z,99.90
2023-04-01T23:19:05.415Z,99.90
2023-04-01T23:21:45.448Z,99.90
2023-04-01T23:24:36.847Z,99.90
2023-04-01T23:27:17.942Z,99.90
2023-04-01T23:29:44.524Z,99.90
2023-04-01T23:32:22.561Z,99.90
2023-04-01T23:34:57.208Z,99.90
2023-04-01T23:37:25.272Z,99.90
2023-04-01T23:39:58.517Z,99.90
2023-04-01T23:42:40.678Z,99.90
2023-04-01T23:45:20.129Z,99.90
2023-04-01T23:47:50.616Z,99.90
2023-04-01T23:50:25.878Z,99.90
2023-04-01T23:53:11.363Z,99.90
2023-04-01T23:55:42.398Z,99.90
2023-04-01T23:58:56.482Z,99.90
